createdAt,value
2023-04-16T00:02:36.000Z,18.68
2023-04-16T00:07:35.000Z,20.71
2023-04-16T00:12:36.000Z,20.43
2023-04-16T00:17:35.000Z,20.79
2023-04-16T00:22:36.000Z,19.68
2023-04-16T00:27:35.000Z,19.43
2023-04-16T00:32:35.000Z,19.86
2023-04-16T00:37:35.000Z,24.81
2023-04-16T00:42:35.000Z,20.3
2023-04-16T00:47:35.000Z,19.06
2023-04-16T00:52:35.000Z,18.34
2023-04-16T00:57:35.000Z,19.15
2023-04-16T01:02:35.000Z,18.67
2023-04-16T01:07:36.000Z,19.09
2023-04-16T01:12:35.000Z,19.27
2023-04-16T01:17:36.000Z,19.27
2023-04-16T01:22:35.000Z,17.59
2023-04-16T01:27:35.000Z,17.19
2023-04-16T01:32:35.000Z,16.79
2023-04-16T01:37:36.000Z,16.22
2023-04-16T01:42:35.000Z,16.13
2023-04-16T01:47:36.000Z,15.44
2023-04-16T01:52:36.000Z,15.06
2023-04-16T01:57:36.000Z,15.69
2023-04-16T02:02:36.000Z,14.55
2023-04-16T02:07:36.000Z,14.63
2023-04-16T02:12:35.000Z,15.41
2023-04-16T02:17:36.000Z,14.7
2023-04-16T02:22:35.000Z,15.98
2023-04-16T02:27:36.000Z,15.95
2023-04-16T02:32:36.000Z,15.95
2023-04-16T02:37:36.000Z,15.89
2023-04-16T02:42:36.000Z,16.17
2023-04-16T02:47:35.000Z,14.59
2023-04-16T02:52:36.000Z,14.49
2023-04-16T02:57:36.000Z,13.35
2023-04-16T03:02:36.000Z,14.6
2023-04-16T03:07:35.000Z,15.42
2023-04-16T03:12:36.000Z,14.9
2023-04-16T03:17:36.000Z,14.97
2023-04-16T03:22:36.000Z,15.76
2023-04-16T03:27:36.000Z,16.24
2023-04-16T03:32:36.000Z,16.01
2023-04-16T03:37:36.000Z,14.78
2023-04-16T03:42:35.000Z,15.08
2023-04-16T03:47:35.000Z,15.08
2023-04-16T03:52:35.000Z,16.23
2023-04-16T03:57:35.000Z,16.19
2023-04-16T04:02:35.000Z,15.78
2023-04-16T04:07:36.000Z,15.47
2023-04-16T04:12:35.000Z,15.68
2023-04-16T04:17:36.000Z,17.39
2023-04-16T04:22:35.000Z,17.57
2023-04-16T04:27:36.000Z,20.88
2023-04-16T04:32:35.000Z,18.95
2023-04-16T04:37:35.000Z,18.27
2023-04-16T04:42:35.000Z,16.42
2023-04-16T04:47:36.000Z,16.15
2023-04-16T04:52:35.000Z,15.65
2023-04-16T04:57:36.000Z,15.21
2023-04-16T05:02:36.000Z,15.21
2023-04-16T05:07:36.000Z,17.66
2023-04-16T05:12:35.000Z,14.04
2023-04-16T05:17:36.000Z,7.59
2023-04-16T05:22:35.000Z,6.63
2023-04-16T05:27:35.000Z,6.66
2023-04-16T05:32:36.000Z,5.96
2023-04-16T05:37:35.000Z,6.44
2023-04-16T05:42:36.000Z,6.13
2023-04-16T05:47:35.000Z,5.99
2023-04-16T05:52:36.000Z,5.95
2023-04-16T05:57:35.000Z,5.51
2023-04-16T06:02:36.000Z,6.1
2023-04-16T06:07:35.000Z,5.26
2023-04-16T06:12:35.000Z,5.26
2023-04-16T06:17:36.000Z,8.4
2023-04-16T06:22:36.000Z,5.04
2023-04-16T06:27:36.000Z,5.17
2023-04-16T06:32:36.000Z,5.38
2023-04-16T06:37:36.000Z,5.28
2023-04-16T06:42:36.000Z,5.08
2023-04-16T06:47:36.000Z,5.16
2023-04-16T06:52:36.000Z,5.1
2023-04-16T06:57:36.000Z,4.93
2023-04-16T07:02:36.000Z,4.32
2023-04-16T07:07:36.000Z,4.17
2023-04-16T07:12:36.000Z,3.98
2023-04-16T07:17:36.000Z,3.76
2023-04-16T07:22:35.000Z,3.76
2023-04-16T07:27:36.000Z,3.78
2023-04-16T07:32:36.000Z,3.97
2023-04-16T07:37:35.000Z,4.2
2023-04-16T07:42:36.000Z,4.3
2023-04-16T07:47:36.000Z,4.3
2023-04-16T07:52:36.000Z,4.28
2023-04-16T07:57:36.000Z,4.37
2023-04-16T08:02:35.000Z,4.47
2023-04-16T08:07:36.000Z,4.97
2023-04-16T08:12:36.000Z,5.54
2023-04-16T08:17:36.000Z,5.26
2023-04-16T08:22:36.000Z,6.64
2023-04-16T08:27:35.000Z,7.63
2023-04-16T08:32:36.000Z,7.63
2023-04-16T08:37:36.000Z,7.69
2023-04-16T08:42:36.000Z,7.95
2023-04-16T08:47:36.000Z,7.42
2023-04-16T08:52:35.000Z,6.18
2023-04-16T08:57:36.000Z,6.11
2023-04-16T09:02:36.000Z,4.93
2023-04-16T09:07:35.000Z,4.8
2023-04-16T09:12:36.000Z,4.92
2023-04-16T09:17:36.000Z,4.69
2023-04-16T09:22:35.000Z,4.75
2023-04-16T09:27:36.000Z,4.88
2023-04-16T09:32:35.000Z,4.76
2023-04-16T09:37:37.000Z,4.71
2023-04-16T09:42:35.000Z,4.88
2023-04-16T09:47:35.000Z,4.88
2023-04-16T09:52:35.000Z,4.87
2023-04-16T09:57:35.000Z,4.52
2023-04-16T10:02:36.000Z,4.21
2023-04-16T10:07:35.000Z,4.23
2023-04-16T10:12:35.000Z,5
2023-04-16T10:17:46.000Z,5.2
2023-04-16T10:22:35.000Z,4.46
2023-04-16T10:27:35.000Z,4.67
2023-04-16T10:32:36.000Z,5.16
2023-04-16T10:37:36.000Z,5.53
2023-04-16T10:42:35.000Z,5.57
2023-04-16T10:47:35.000Z,5.21
2023-04-16T10:52:35.000Z,5.85
2023-04-16T10:57:35.000Z,5.85
2023-04-16T11:02:38.000Z,5.96
2023-04-16T11:07:35.000Z,5.93
2023-04-16T11:12:35.000Z,7.41
2023-04-16T11:17:36.000Z,8.36
2023-04-16T11:22:36.000Z,7.4
2023-04-16T11:27:35.000Z,7.31
2023-04-16T11:32:36.000Z,7.09
2023-04-16T11:37:36.000Z,7.47
2023-04-16T11:42:36.000Z,7.74
2023-04-16T11:47:36.000Z,7.77
2023-04-16T11:52:35.000Z,7.46
2023-04-16T11:57:35.000Z,6.52
2023-04-16T12:02:36.000Z,7.02
2023-04-16T12:07:36.000Z,7.02
2023-04-16T12:12:36.000Z,6.84
2023-04-16T12:17:35.000Z,8.15
2023-04-16T12:22:35.000Z,7.41
2023-04-16T12:27:36.000Z,6.85
2023-04-16T12:32:36.000Z,6.96
2023-04-16T12:37:35.000Z,6.61
2023-04-16T12:42:35.000Z,6.82
2023-04-16T12:47:36.000Z,7.17
2023-04-16T12:52:36.000Z,7.17
2023-04-16T12:57:35.000Z,7.1
2023-04-16T13:02:35.000Z,8.45
2023-04-16T13:07:36.000Z,9.24
2023-04-16T13:12:36.000Z,9.58
2023-04-16T13:17:35.000Z,9.58
2023-04-16T13:22:35.000Z,8.64
2023-04-16T13:27:36.000Z,8.5
2023-04-16T13:32:35.000Z,8.8
2023-04-16T13:37:36.000Z,8.76
2023-04-16T13:42:36.000Z,8.87
2023-04-16T13:47:35.000Z,9.05
2023-04-16T13:52:35.000Z,8.21
2023-04-16T13:57:35.000Z,9.98
2023-04-16T14:02:36.000Z,10.3
2023-04-16T14:07:35.000Z,9.99
2023-04-16T14:12:36.000Z,9.46
2023-04-16T14:17:35.000Z,9.55
2023-04-16T14:22:36.000Z,9.61
2023-04-16T14:27:35.000Z,9.61
2023-04-16T14:32:36.000Z,9.25
2023-04-16T14:37:36.000Z,10.64
2023-04-16T14:42:36.000Z,10.35
2023-04-16T14:47:36.000Z,10.07
2023-04-16T14:52:37.000Z,9.37
2023-04-16T14:57:36.000Z,9.49
2023-04-16T15:02:36.000Z,9
2023-04-16T15:07:36.000Z,10.02
2023-04-16T15:12:35.000Z,9.95
2023-04-16T15:17:35.000Z,9.29
2023-04-16T15:22:36.000Z,11.46
2023-04-16T15:27:36.000Z,16.52
2023-04-16T15:32:36.000Z,13.59
2023-04-16T15:37:36.000Z,12.43
2023-04-16T15:42:35.000Z,12.43
2023-04-16T15:47:36.000Z,12.89
2023-04-16T15:52:35.000Z,12.41
2023-04-16T15:57:35.000Z,12.78
2023-04-16T16:02:36.000Z,9.77
2023-04-16T16:07:35.000Z,9.88
2023-04-16T16:12:36.000Z,11.18
2023-04-16T16:17:36.000Z,12.43
2023-04-16T16:22:35.000Z,14.26
2023-04-16T16:27:35.000Z,14.67
2023-04-16T16:32:35.000Z,15.79
2023-04-16T16:37:35.000Z,15.15
2023-04-16T16:42:36.000Z,13.15
2023-04-16T16:47:35.000Z,13.15
2023-04-16T16:52:36.000Z,12.27
2023-04-16T16:57:36.000Z,13.08
2023-04-16T17:02:36.000Z,15.52
2023-04-16T17:07:36.000Z,17.84
2023-04-16T17:12:36.000Z,18.69
2023-04-16T17:17:35.000Z,18.93
2023-04-16T17:22:35.000Z,19.21
2023-04-16T17:27:35.000Z,19.49
2023-04-16T17:32:36.000Z,19.82
2023-04-16T17:37:35.000Z,19.43
2023-04-16T17:42:35.000Z,19.53
2023-04-16T17:47:35.000Z,19.37
2023-04-16T17:52:36.000Z,20.91
2023-04-16T17:57:36.000Z,21.45
2023-04-16T18:02:36.000Z,21.45
2023-04-16T18:07:35.000Z,20.08
2023-04-16T18:12:36.000Z,18.91
2023-04-16T18:17:35.000Z,17.15
2023-04-16T18:22:37.000Z,18.28
2023-04-16T18:27:36.000Z,18.62
2023-04-16T18:37:36.000Z,18.62
2023-04-16T18:42:35.000Z,17.93
2023-04-16T18:47:36.000Z,17.38
2023-04-16T18:52:35.000Z,17.07
2023-04-16T18:57:35.000Z,16.51
2023-04-16T19:02:36.000Z,16.28
2023-04-16T19:07:36.000Z,16.03
2023-04-16T19:12:36.000Z,16.03
2023-04-16T19:17:36.000Z,15.14
2023-04-16T19:22:36.000Z,14.85
2023-04-16T19:27:35.000Z,14.12
2023-04-16T19:32:36.000Z,14.18
2023-04-16T19:37:35.000Z,14.54
2023-04-16T19:42:35.000Z,13.99
2023-04-16T19:47:36.000Z,14.61
2023-04-16T19:52:36.000Z,14.42
2023-04-16T19:57:36.000Z,14.37
2023-04-16T20:02:36.000Z,14.72
2023-04-16T20:07:36.000Z,15.42
2023-04-16T20:12:35.000Z,15.45
2023-04-16T20:17:36.000Z,14.32
2023-04-16T20:22:35.000Z,14.84
2023-04-16T20:27:35.000Z,14.84
2023-04-16T20:32:38.000Z,13.91
2023-04-16T20:37:35.000Z,13.99
2023-04-16T20:42:36.000Z,14.26
2023-04-16T20:47:35.000Z,14.21
2023-04-16T20:52:35.000Z,13.58
2023-04-16T20:57:36.000Z,13.62
2023-04-16T21:02:36.000Z,14.48
2023-04-16T21:07:36.000Z,14.27
2023-04-16T21:12:36.000Z,14.09
2023-04-16T21:17:36.000Z,13.92
2023-04-16T21:22:35.000Z,14.52
2023-04-16T21:27:36.000Z,14.92
2023-04-16T21:32:35.000Z,14.53
2023-04-16T21:37:36.000Z,14.53
2023-04-16T21:42:35.000Z,14.23
2023-04-16T21:47:36.000Z,14.23
2023-04-16T21:52:35.000Z,13.75
2023-04-16T21:57:35.000Z,13.82
2023-04-16T22:02:35.000Z,14.51
2023-04-16T22:07:35.000Z,14.57
2023-04-16T22:12:35.000Z,14.18
2023-04-16T22:17:36.000Z,14.62
2023-04-16T22:22:35.000Z,14.68
2023-04-16T22:27:36.000Z,14.24
2023-04-16T22:32:36.000Z,14.27
2023-04-16T22:37:35.000Z,14.28
2023-04-16T22:42:36.000Z,14.29
2023-04-16T22:47:36.000Z,14.29
2023-04-16T22:52:36.000Z,13.66
2023-04-16T22:57:35.000Z,14.25
2023-04-16T23:02:35.000Z,14.09
2023-04-16T23:07:35.000Z,14.25
2023-04-16T23:12:36.000Z,14.38
2023-04-16T23:17:36.000Z,14.57
2023-04-16T23:22:36.000Z,14.27
2023-04-16T23:27:35.000Z,14.99
2023-04-16T23:32:36.000Z,15.13
2023-04-16T23:37:36.000Z,15.23
2023-04-16T23:42:35.000Z,16.75
2023-04-16T23:47:36.000Z,15.73
2023-04-16T23:52:35.000Z,14.79
2023-04-16T23:57:36.000Z,15.16
